sensor_id;sensor_type;location;lat;lon;timestamp;P1;durP1;ratioP1;P2;durP2;ratioP2
11396;SDS011;5754;43.726;7.416;2023-08-20T00:00:29;10.98;;;8.73;;
11396;SDS011;5754;43.726;7.416;2023-08-20T00:03:04;11.57;;;8.82;;
11396;SDS011;5754;43.726;7.416;2023-08-20T00:05:42;9.45;;;8.40;;
11396;SDS011;5754;43.726;7.416;2023-08-20T00:08:19;13.38;;;9.52;;
11396;SDS011;5754;43.726;7.416;2023-08-20T00:10:53;11.50;;;9.30;;
11396;SDS011;5754;43.726;7.416;2023-08-20T00:13:28;10.25;;;9.07;;
11396;SDS011;5754;43.726;7.416;2023-08-20T00:16:02;12.93;;;9.20;;
11396;SDS011;5754;43.726;7.416;2023-08-20T00:18:37;11.02;;;8.93;;
11396;SDS011;5754;43.726;7.416;2023-08-20T00:21:13;12.60;;;7.93;;
11396;SDS011;5754;43.726;7.416;2023-08-20T00:23:48;9.50;;;8.55;;
11396;SDS011;5754;43.726;7.416;2023-08-20T00:26:23;8.38;;;7.57;;
11396;SDS011;5754;43.726;7.416;2023-08-20T00:28:57;9.63;;;8.10;;
11396;SDS011;5754;43.726;7.416;2023-08-20T00:31:31;12.93;;;8.88;;
11396;SDS011;5754;43.726;7.416;2023-08-20T00:34:07;11.77;;;8.60;;
11396;SDS011;5754;43.726;7.416;2023-08-20T00:36:42;9.05;;;8.10;;
11396;SDS011;5754;43.726;7.416;2023-08-20T00:39:17;9.80;;;8.35;;
11396;SDS011;5754;43.726;7.416;2023-08-20T00:41:51;10.45;;;8.02;;
11396;SDS011;5754;43.726;7.416;2023-08-20T00:44:26;10.07;;;8.07;;
11396;SDS011;5754;43.726;7.416;2023-08-20T00:47:01;8.52;;;7.70;;
11396;SDS011;5754;43.726;7.416;2023-08-20T00:49:36;9.05;;;8.15;;
11396;SDS011;5754;43.726;7.416;2023-08-20T00:52:11;10.63;;;7.90;;
11396;SDS011;5754;43.726;7.416;2023-08-20T00:54:47;8.63;;;7.78;;
11396;SDS011;5754;43.726;7.416;2023-08-20T00:57:21;9.57;;;7.75;;
11396;SDS011;5754;43.726;7.416;2023-08-20T00:59:57;8.73;;;7.60;;
11396;SDS011;5754;43.726;7.416;2023-08-20T01:02:33;8.10;;;7.35;;
11396;SDS011;5754;43.726;7.416;2023-08-20T01:05:09;8.32;;;7.53;;
11396;SDS011;5754;43.726;7.416;2023-08-20T01:07:49;8.55;;;7.45;;
11396;SDS011;5754;43.726;7.416;2023-08-20T01:19:51;7.93;;;7.12;;
11396;SDS011;5754;43.726;7.416;2023-08-20T01:25:30;10.35;;;7.60;;
11396;SDS011;5754;43.726;7.416;2023-08-20T01:28:26;8.73;;;7.93;;
11396;SDS011;5754;43.726;7.416;2023-08-20T01:31:02;8.40;;;7.60;;
11396;SDS011;5754;43.726;7.416;2023-08-20T01:33:37;8.20;;;7.45;;
11396;SDS011;5754;43.726;7.416;2023-08-20T01:36:11;8.25;;;7.55;;
11396;SDS011;5754;43.726;7.416;2023-08-20T01:38:48;8.88;;;7.75;;
11396;SDS011;5754;43.726;7.416;2023-08-20T01:41:23;8.77;;;7.57;;
11396;SDS011;5754;43.726;7.416;2023-08-20T01:43:58;9.48;;;7.60;;
11396;SDS011;5754;43.726;7.416;2023-08-20T01:46:32;10.55;;;7.97;;
11396;SDS011;5754;43.726;7.416;2023-08-20T01:49:07;8.82;;;7.90;;
11396;SDS011;5754;43.726;7.416;2023-08-20T01:51:41;8.93;;;8.02;;
11396;SDS011;5754;43.726;7.416;2023-08-20T01:54:15;8.50;;;7.30;;
11396;SDS011;5754;43.726;7.416;2023-08-20T01:56:50;9.00;;;7.80;;
11396;SDS011;5754;43.726;7.416;2023-08-20T01:59:25;8.98;;;8.07;;
11396;SDS011;5754;43.726;7.416;2023-08-20T02:01:59;10.10;;;8.00;;
11396;SDS011;5754;43.726;7.416;2023-08-20T02:04:34;10.32;;;7.78;;
11396;SDS011;5754;43.726;7.416;2023-08-20T02:07:08;7.95;;;7.22;;
11396;SDS011;5754;43.726;7.416;2023-08-20T02:09:43;8.85;;;7.18;;
11396;SDS011;5754;43.726;7.416;2023-08-20T02:12:19;8.75;;;7.45;;
11396;SDS011;5754;43.726;7.416;2023-08-20T02:14:53;8.25;;;7.55;;
11396;SDS011;5754;43.726;7.416;2023-08-20T02:17:28;8.07;;;7.20;;
11396;SDS011;5754;43.726;7.416;2023-08-20T02:20:03;10.15;;;7.50;;
11396;SDS011;5754;43.726;7.416;2023-08-20T02:22:38;8.68;;;7.78;;
11396;SDS011;5754;43.726;7.416;2023-08-20T02:25:13;8.80;;;7.78;;
11396;SDS011;5754;43.726;7.416;2023-08-20T02:27:47;8.63;;;7.40;;
11396;SDS011;5754;43.726;7.416;2023-08-20T02:30:22;8.38;;;7.57;;
11396;SDS011;5754;43.726;7.416;2023-08-20T02:32:56;8.73;;;7.68;;
11396;SDS011;5754;43.726;7.416;2023-08-20T02:35:33;8.43;;;7.72;;
11396;SDS011;5754;43.726;7.416;2023-08-20T02:38:08;9.13;;;8.10;;
11396;SDS011;5754;43.726;7.416;2023-08-20T02:40:44;8.13;;;7.25;;
11396;SDS011;5754;43.726;7.416;2023-08-20T02:43:20;8.18;;;7.43;;
11396;SDS011;5754;43.726;7.416;2023-08-20T02:45:55;8.57;;;7.57;;
11396;SDS011;5754;43.726;7.416;2023-08-20T02:48:29;9.73;;;7.55;;
11396;SDS011;5754;43.726;7.416;2023-08-20T02:51:05;9.20;;;7.95;;
11396;SDS011;5754;43.726;7.416;2023-08-20T02:53:40;9.38;;;8.40;;
11396;SDS011;5754;43.726;7.416;2023-08-20T02:56:15;9.55;;;8.18;;
11396;SDS011;5754;43.726;7.416;2023-08-20T02:58:49;10.27;;;7.78;;
11396;SDS011;5754;43.726;7.416;2023-08-20T03:01:24;8.57;;;7.78;;
11396;SDS011;5754;43.726;7.416;2023-08-20T03:03:59;7.85;;;7.15;;
11396;SDS011;5754;43.726;7.416;2023-08-20T03:06:33;8.85;;;7.85;;
11396;SDS011;5754;43.726;7.416;2023-08-20T03:09:08;10.15;;;8.20;;
11396;SDS011;5754;43.726;7.416;2023-08-20T03:11:42;8.82;;;7.68;;
11396;SDS011;5754;43.726;7.416;2023-08-20T03:14:18;8.80;;;7.75;;
11396;SDS011;5754;43.726;7.416;2023-08-20T03:16:53;9.85;;;8.07;;
11396;SDS011;5754;43.726;7.416;2023-08-20T03:19:29;8.77;;;7.82;;
11396;SDS011;5754;43.726;7.416;2023-08-20T03:22:04;8.50;;;7.80;;
11396;SDS011;5754;43.726;7.416;2023-08-20T03:24:38;10.13;;;8.40;;
11396;SDS011;5754;43.726;7.416;2023-08-20T03:27:13;8.88;;;8.10;;
11396;SDS011;5754;43.726;7.416;2023-08-20T03:29:47;9.55;;;8.30;;
11396;SDS011;5754;43.726;7.416;2023-08-20T03:32:22;8.48;;;7.65;;
11396;SDS011;5754;43.726;7.416;2023-08-20T03:34:59;8.32;;;7.15;;
11396;SDS011;5754;43.726;7.416;2023-08-20T03:37:34;8.40;;;7.60;;
11396;SDS011;5754;43.726;7.416;2023-08-20T03:40:08;9.98;;;8.00;;
11396;SDS011;5754;43.726;7.416;2023-08-20T03:42:43;10.38;;;8.57;;
11396;SDS011;5754;43.726;7.416;2023-08-20T03:45:18;11.73;;;8.60;;
11396;SDS011;5754;43.726;7.416;2023-08-20T03:47:53;9.07;;;8.18;;
11396;SDS011;5754;43.726;7.416;2023-08-20T03:50:28;8.98;;;7.70;;
11396;SDS011;5754;43.726;7.416;2023-08-20T03:53:03;9.35;;;8.43;;
11396;SDS011;5754;43.726;7.416;2023-08-20T03:55:37;9.05;;;8.20;;
11396;SDS011;5754;43.726;7.416;2023-08-20T03:58:16;9.70;;;8.80;;
11396;SDS011;5754;43.726;7.416;2023-08-20T04:00:51;9.55;;;8.55;;
11396;SDS011;5754;43.726;7.416;2023-08-20T04:03:26;8.73;;;7.25;;
11396;SDS011;5754;43.726;7.416;2023-08-20T04:06:00;11.82;;;8.10;;
11396;SDS011;5754;43.726;7.416;2023-08-20T04:08:36;9.38;;;8.23;;
11396;SDS011;5754;43.726;7.416;2023-08-20T04:11:10;9.00;;;8.10;;
11396;SDS011;5754;43.726;7.416;2023-08-20T04:13:46;10.57;;;8.70;;
11396;SDS011;5754;43.726;7.416;2023-08-20T04:16:22;8.82;;;7.87;;
11396;SDS011;5754;43.726;7.416;2023-08-20T04:18:56;8.75;;;7.85;;
11396;SDS011;5754;43.726;7.416;2023-08-20T04:21:31;9.68;;;8.68;;
11396;SDS011;5754;43.726;7.416;2023-08-20T04:24:05;9.00;;;8.15;;
11396;SDS011;5754;43.726;7.416;2023-08-20T04:26:40;9.10;;;7.87;;
11396;SDS011;5754;43.726;7.416;2023-08-20T04:29:15;9.70;;;8.77;;
11396;SDS011;5754;43.726;7.416;2023-08-20T04:31:49;8.50;;;7.80;;
11396;SDS011;5754;43.726;7.416;2023-08-20T04:34:23;9.43;;;8.50;;
11396;SDS011;5754;43.726;7.416;2023-08-20T04:36:59;10.10;;;7.70;;
11396;SDS011;5754;43.726;7.416;2023-08-20T04:39:33;8.90;;;7.90;;
11396;SDS011;5754;43.726;7.416;2023-08-20T04:42:08;9.55;;;8.50;;
11396;SDS011;5754;43.726;7.416;2023-08-20T04:44:43;10.30;;;8.93;;
11396;SDS011;5754;43.726;7.416;2023-08-20T04:47:20;10.05;;;8.55;;
11396;SDS011;5754;43.726;7.416;2023-08-20T04:49:54;8.55;;;7.75;;
11396;SDS011;5754;43.726;7.416;2023-08-20T04:52:29;10.80;;;8.45;;
11396;SDS011;5754;43.726;7.416;2023-08-20T04:55:03;8.73;;;7.90;;
11396;SDS011;5754;43.726;7.416;2023-08-20T04:57:38;9.45;;;8.55;;
11396;SDS011;5754;43.726;7.416;2023-08-20T05:00:12;9.23;;;8.30;;
11396;SDS011;5754;43.726;7.416;2023-08-20T05:02:51;9.40;;;8.50;;
11396;SDS011;5754;43.726;7.416;2023-08-20T05:05:27;9.27;;;8.48;;
11396;SDS011;5754;43.726;7.416;2023-08-20T05:08:03;9.93;;;8.18;;
11396;SDS011;5754;43.726;7.416;2023-08-20T05:10:38;10.38;;;8.32;;
11396;SDS011;5754;43.726;7.416;2023-08-20T05:13:17;9.45;;;8.13;;
11396;SDS011;5754;43.726;7.416;2023-08-20T05:15:54;11.30;;;8.43;;
11396;SDS011;5754;43.726;7.416;2023-08-20T05:18:32;9.43;;;8.48;;
11396;SDS011;5754;43.726;7.416;2023-08-20T05:21:07;8.70;;;7.80;;
11396;SDS011;5754;43.726;7.416;2023-08-20T05:23:43;9.27;;;8.38;;
11396;SDS011;5754;43.726;7.416;2023-08-20T05:26:18;8.98;;;7.95;;
11396;SDS011;5754;43.726;7.416;2023-08-20T05:28:52;10.20;;;8.77;;
11396;SDS011;5754;43.726;7.416;2023-08-20T05:31:27;9.30;;;8.50;;
11396;SDS011;5754;43.726;7.416;2023-08-20T05:34:02;9.18;;;8.27;;
11396;SDS011;5754;43.726;7.416;2023-08-20T05:36:37;10.45;;;8.60;;
11396;SDS011;5754;43.726;7.416;2023-08-20T05:39:12;9.52;;;8.73;;
11396;SDS011;5754;43.726;7.416;2023-08-20T05:41:47;9.48;;;8.57;;
11396;SDS011;5754;43.726;7.416;2023-08-20T05:44:22;9.10;;;8.30;;
11396;SDS011;5754;43.726;7.416;2023-08-20T05:46:56;9.10;;;8.27;;
11396;SDS011;5754;43.726;7.416;2023-08-20T05:49:33;9.48;;;8.05;;
11396;SDS011;5754;43.726;7.416;2023-08-20T05:52:07;9.95;;;8.65;;
11396;SDS011;5754;43.726;7.416;2023-08-20T05:54:43;10.60;;;8.35;;
11396;SDS011;5754;43.726;7.416;2023-08-20T05:57:17;10.48;;;8.25;;
11396;SDS011;5754;43.726;7.416;2023-08-20T05:59:52;9.43;;;8.43;;
11396;SDS011;5754;43.726;7.416;2023-08-20T06:02:26;9.38;;;7.85;;
11396;SDS011;5754;43.726;7.416;2023-08-20T06:05:00;9.07;;;8.23;;
11396;SDS011;5754;43.726;7.416;2023-08-20T06:07:35;10.07;;;8.40;;
11396;SDS011;5754;43.726;7.416;2023-08-20T06:10:09;9.40;;;8.05;;
11396;SDS011;5754;43.726;7.416;2023-08-20T06:12:45;10.80;;;8.20;;
11396;SDS011;5754;43.726;7.416;2023-08-20T06:15:19;11.27;;;7.65;;
11396;SDS011;5754;43.726;7.416;2023-08-20T06:17:53;10.45;;;7.90;;
11396;SDS011;5754;43.726;7.416;2023-08-20T06:20:27;8.90;;;8.00;;
11396;SDS011;5754;43.726;7.416;2023-08-20T06:23:02;9.88;;;8.13;;
11396;SDS011;5754;43.726;7.416;2023-08-20T06:25:37;10.10;;;8.18;;
11396;SDS011;5754;43.726;7.416;2023-08-20T06:28:11;9.43;;;8.23;;
11396;SDS011;5754;43.726;7.416;2023-08-20T06:30:45;9.20;;;7.82;;
11396;SDS011;5754;43.726;7.416;2023-08-20T06:33:20;8.77;;;7.82;;
11396;SDS011;5754;43.726;7.416;2023-08-20T06:35:56;9.00;;;7.95;;
11396;SDS011;5754;43.726;7.416;2023-08-20T06:38:30;8.57;;;7.78;;
11396;SDS011;5754;43.726;7.416;2023-08-20T06:41:04;9.10;;;8.20;;
11396;SDS011;5754;43.726;7.416;2023-08-20T06:43:40;9.18;;;7.97;;
11396;SDS011;5754;43.726;7.416;2023-08-20T06:46:15;7.82;;;7.03;;
11396;SDS011;5754;43.726;7.416;2023-08-20T06:48:49;8.50;;;7.12;;
11396;SDS011;5754;43.726;7.416;2023-08-20T06:51:24;14.57;;;8.13;;
11396;SDS011;5754;43.726;7.416;2023-08-20T06:53:58;12.82;;;9.02;;
11396;SDS011;5754;43.726;7.416;2023-08-20T06:56:33;9.27;;;7.53;;
11396;SDS011;5754;43.726;7.416;2023-08-20T06:59:07;9.55;;;7.45;;
11396;SDS011;5754;43.726;7.416;2023-08-20T07:01:42;8.20;;;7.40;;
11396;SDS011;5754;43.726;7.416;2023-08-20T07:04:16;10.23;;;8.25;;
11396;SDS011;5754;43.726;7.416;2023-08-20T07:06:52;8.30;;;7.47;;
11396;SDS011;5754;43.726;7.416;2023-08-20T07:09:26;9.20;;;7.25;;
11396;SDS011;5754;43.726;7.416;2023-08-20T07:12:01;9.02;;;7.47;;
11396;SDS011;5754;43.726;7.416;2023-08-20T07:14:36;8.27;;;7.43;;
11396;SDS011;5754;43.726;7.416;2023-08-20T07:17:10;7.70;;;7.00;;
11396;SDS011;5754;43.726;7.416;2023-08-20T07:19:44;9.35;;;7.43;;
11396;SDS011;5754;43.726;7.416;2023-08-20T07:22:19;9.88;;;7.55;;
11396;SDS011;5754;43.726;7.416;2023-08-20T07:24:53;8.38;;;7.53;;
11396;SDS011;5754;43.726;7.416;2023-08-20T07:27:28;11.20;;;7.78;;
11396;SDS011;5754;43.726;7.416;2023-08-20T07:30:03;8.48;;;7.30;;
11396;SDS011;5754;43.726;7.416;2023-08-20T07:32:37;9.32;;;7.72;;
11396;SDS011;5754;43.726;7.416;2023-08-20T07:35:12;8.38;;;7.57;;
11396;SDS011;5754;43.726;7.416;2023-08-20T07:37:47;10.40;;;7.72;;
11396;SDS011;5754;43.726;7.416;2023-08-20T07:40:21;8.43;;;7.50;;
11396;SDS011;5754;43.726;7.416;2023-08-20T07:42:55;8.57;;;7.00;;
11396;SDS011;5754;43.726;7.416;2023-08-20T07:45:30;8.27;;;7.50;;
11396;SDS011;5754;43.726;7.416;2023-08-20T07:48:05;9.55;;;7.37;;
11396;SDS011;5754;43.726;7.416;2023-08-20T07:50:40;7.70;;;6.85;;
11396;SDS011;5754;43.726;7.416;2023-08-20T07:53:15;8.70;;;7.90;;
11396;SDS011;5754;43.726;7.416;2023-08-20T07:55:49;8.68;;;7.87;;
11396;SDS011;5754;43.726;7.416;2023-08-20T07:58:24;8.55;;;7.70;;
11396;SDS011;5754;43.726;7.416;2023-08-20T08:00:58;10.00;;;7.85;;
11396;SDS011;5754;43.726;7.416;2023-08-20T08:03:33;9.23;;;7.90;;
11396;SDS011;5754;43.726;7.416;2023-08-20T08:06:07;8.85;;;8.00;;
11396;SDS011;5754;43.726;7.416;2023-08-20T08:08:42;9.02;;;7.57;;
11396;SDS011;5754;43.726;7.416;2023-08-20T08:11:17;8.45;;;7.50;;
11396;SDS011;5754;43.726;7.416;2023-08-20T08:13:52;9.52;;;7.55;;
11396;SDS011;5754;43.726;7.416;2023-08-20T08:16:26;9.95;;;7.68;;
11396;SDS011;5754;43.726;7.416;2023-08-20T08:19:02;9.45;;;8.50;;
11396;SDS011;5754;43.726;7.416;2023-08-20T08:21:37;9.05;;;8.15;;
11396;SDS011;5754;43.726;7.416;2023-08-20T08:24:12;8.95;;;8.13;;
11396;SDS011;5754;43.726;7.416;2023-08-20T08:26:47;9.80;;;8.38;;
11396;SDS011;5754;43.726;7.416;2023-08-20T08:29:22;11.18;;;8.65;;
11396;SDS011;5754;43.726;7.416;2023-08-20T08:31:56;9.25;;;8.35;;
11396;SDS011;5754;43.726;7.416;2023-08-20T08:34:30;11.70;;;8.80;;
11396;SDS011;5754;43.726;7.416;2023-08-20T08:37:05;9.05;;;8.25;;
11396;SDS011;5754;43.726;7.416;2023-08-20T08:39:39;9.68;;;8.68;;
11396;SDS011;5754;43.726;7.416;2023-08-20T08:42:14;11.63;;;8.80;;
11396;SDS011;5754;43.726;7.416;2023-08-20T08:44:49;9.98;;;8.98;;
11396;SDS011;5754;43.726;7.416;2023-08-20T08:47:24;10.43;;;9.20;;
11396;SDS011;5754;43.726;7.416;2023-08-20T08:49:59;13.80;;;9.30;;
11396;SDS011;5754;43.726;7.416;2023-08-20T08:52:34;10.73;;;8.93;;
11396;SDS011;5754;43.726;7.416;2023-08-20T08:55:11;10.82;;;9.27;;
11396;SDS011;5754;43.726;7.416;2023-08-20T08:57:45;11.55;;;9.23;;
11396;SDS011;5754;43.726;7.416;2023-08-20T09:00:20;12.13;;;9.43;;
11396;SDS011;5754;43.726;7.416;2023-08-20T09:02:54;12.98;;;9.60;;
11396;SDS011;5754;43.726;7.416;2023-08-20T09:05:29;10.32;;;9.32;;
11396;SDS011;5754;43.726;7.416;2023-08-20T09:08:04;10.57;;;9.43;;
11396;SDS011;5754;43.726;7.416;2023-08-20T09:10:38;10.32;;;9.30;;
11396;SDS011;5754;43.726;7.416;2023-08-20T09:13:12;14.43;;;10.07;;
11396;SDS011;5754;43.726;7.416;2023-08-20T09:15:49;13.45;;;9.85;;
11396;SDS011;5754;43.726;7.416;2023-08-20T09:18:24;14.73;;;9.50;;
11396;SDS011;5754;43.726;7.416;2023-08-20T09:20:59;12.15;;;10.05;;
11396;SDS011;5754;43.726;7.416;2023-08-20T09:23:34;10.73;;;9.13;;
11396;SDS011;5754;43.726;7.416;2023-08-20T09:26:08;12.05;;;10.20;;
11396;SDS011;5754;43.726;7.416;2023-08-20T09:28:44;10.57;;;9.52;;
11396;SDS011;5754;43.726;7.416;2023-08-20T09:31:20;11.10;;;10.00;;
11396;SDS011;5754;43.726;7.416;2023-08-20T09:33:54;11.35;;;10.23;;
11396;SDS011;5754;43.726;7.416;2023-08-20T09:36:32;11.65;;;9.27;;
11396;SDS011;5754;43.726;7.416;2023-08-20T09:39:07;10.88;;;9.82;;
11396;SDS011;5754;43.726;7.416;2023-08-20T09:41:41;11.63;;;9.48;;
11396;SDS011;5754;43.726;7.416;2023-08-20T09:44:17;14.00;;;10.55;;
11396;SDS011;5754;43.726;7.416;2023-08-20T09:49:36;13.23;;;9.23;;
11396;SDS011;5754;43.726;7.416;2023-08-20T09:52:12;12.68;;;9.93;;
11396;SDS011;5754;43.726;7.416;2023-08-20T09:55:08;11.93;;;10.02;;
11396;SDS011;5754;43.726;7.416;2023-08-20T09:57:43;17.15;;;10.75;;
11396;SDS011;5754;43.726;7.416;2023-08-20T10:00:19;10.30;;;9.30;;
11396;SDS011;5754;43.726;7.416;2023-08-20T10:02:55;12.70;;;9.95;;
11396;SDS011;5754;43.726;7.416;2023-08-20T10:05:30;14.85;;;10.52;;
11396;SDS011;5754;43.726;7.416;2023-08-20T10:08:07;14.57;;;10.05;;
11396;SDS011;5754;43.726;7.416;2023-08-20T10:10:41;10.90;;;9.32;;
11396;SDS011;5754;43.726;7.416;2023-08-20T10:13:16;12.27;;;10.10;;
11396;SDS011;5754;43.726;7.416;2023-08-20T10:15:51;13.13;;;9.55;;
11396;SDS011;5754;43.726;7.416;2023-08-20T10:18:28;11.63;;;9.20;;
11396;SDS011;5754;43.726;7.416;2023-08-20T10:21:04;10.95;;;9.82;;
11396;SDS011;5754;43.726;7.416;2023-08-20T10:23:41;12.50;;;10.32;;
11396;SDS011;5754;43.726;7.416;2023-08-20T10:26:16;11.98;;;9.65;;
11396;SDS011;5754;43.726;7.416;2023-08-20T10:28:55;11.27;;;9.77;;
11396;SDS011;5754;43.726;7.416;2023-08-20T10:32:09;11.95;;;10.10;;
11396;SDS011;5754;43.726;7.416;2023-08-20T10:34:49;12.65;;;10.68;;
11396;SDS011;5754;43.726;7.416;2023-08-20T10:37:27;9.50;;;8.68;;
11396;SDS011;5754;43.726;7.416;2023-08-20T10:40:02;14.55;;;9.35;;
11396;SDS011;5754;43.726;7.416;2023-08-20T10:42:40;9.55;;;8.48;;
11396;SDS011;5754;43.726;7.416;2023-08-20T10:45:18;11.85;;;10.48;;
11396;SDS011;5754;43.726;7.416;2023-08-20T10:47:52;9.93;;;9.13;;
11396;SDS011;5754;43.726;7.416;2023-08-20T10:50:26;11.25;;;8.85;;
11396;SDS011;5754;43.726;7.416;2023-08-20T10:53:03;10.02;;;9.00;;
11396;SDS011;5754;43.726;7.416;2023-08-20T10:55:37;9.68;;;8.88;;
11396;SDS011;5754;43.726;7.416;2023-08-20T10:58:12;11.80;;;8.50;;
11396;SDS011;5754;43.726;7.416;2023-08-20T11:01:11;8.63;;;7.72;;
11396;SDS011;5754;43.726;7.416;2023-08-20T11:03:47;9.20;;;8.32;;
11396;SDS011;5754;43.726;7.416;2023-08-20T11:06:22;10.60;;;9.15;;
11396;SDS011;5754;43.726;7.416;2023-08-20T11:08:58;9.27;;;8.48;;
11396;SDS011;5754;43.726;7.416;2023-08-20T11:11:32;8.57;;;7.78;;
11396;SDS011;5754;43.726;7.416;2023-08-20T11:14:07;9.73;;;8.07;;
11396;SDS011;5754;43.726;7.416;2023-08-20T11:16:43;8.65;;;7.87;;
11396;SDS011;5754;43.726;7.416;2023-08-20T11:19:22;9.13;;;8.18;;
11396;SDS011;5754;43.726;7.416;2023-08-20T11:21:57;11.48;;;8.13;;
11396;SDS011;5754;43.726;7.416;2023-08-20T11:24:31;9.25;;;8.45;;
11396;SDS011;5754;43.726;7.416;2023-08-20T11:27:06;9.45;;;8.57;;
11396;SDS011;5754;43.726;7.416;2023-08-20T11:29:43;8.90;;;7.93;;
11396;SDS011;5754;43.726;7.416;2023-08-20T11:32:18;9.45;;;8.45;;
11396;SDS011;5754;43.726;7.416;2023-08-20T11:34:52;9.52;;;7.85;;
11396;SDS011;5754;43.726;7.416;2023-08-20T11:37:27;11.40;;;8.07;;
11396;SDS011;5754;43.726;7.416;2023-08-20T11:40:02;8.80;;;8.00;;
11396;SDS011;5754;43.726;7.416;2023-08-20T11:42:36;9.05;;;8.25;;
11396;SDS011;5754;43.726;7.416;2023-08-20T11:45:10;9.05;;;8.20;;
11396;SDS011;5754;43.726;7.416;2023-08-20T11:47:45;13.55;;;8.10;;
11396;SDS011;5754;43.726;7.416;2023-08-20T11:50:20;10.18;;;8.40;;
11396;SDS011;5754;43.726;7.416;2023-08-20T11:52:54;10.80;;;8.52;;
11396;SDS011;5754;43.726;7.416;2023-08-20T11:55:29;9.00;;;8.10;;
11396;SDS011;5754;43.726;7.416;2023-08-20T11:58:04;8.45;;;7.70;;
11396;SDS011;5754;43.726;7.416;2023-08-20T12:00:39;9.57;;;8.57;;
11396;SDS011;5754;43.726;7.416;2023-08-20T12:03:13;9.40;;;8.40;;
11396;SDS011;5754;43.726;7.416;2023-08-20T12:05:49;9.23;;;8.43;;
11396;SDS011;5754;43.726;7.416;2023-08-20T12:08:23;10.98;;;8.48;;
11396;SDS011;5754;43.726;7.416;2023-08-20T12:10:58;8.93;;;7.93;;
11396;SDS011;5754;43.726;7.416;2023-08-20T12:13:32;8.75;;;7.80;;
11396;SDS011;5754;43.726;7.416;2023-08-20T12:16:07;9.15;;;8.25;;
11396;SDS011;5754;43.726;7.416;2023-08-20T12:18:41;10.40;;;9.15;;
11396;SDS011;5754;43.726;7.416;2023-08-20T12:21:16;10.68;;;8.35;;
11396;SDS011;5754;43.726;7.416;2023-08-20T12:23:52;8.77;;;8.00;;
11396;SDS011;5754;43.726;7.416;2023-08-20T12:26:27;9.52;;;8.63;;
11396;SDS011;5754;43.726;7.416;2023-08-20T12:29:01;8.98;;;8.13;;
11396;SDS011;5754;43.726;7.416;2023-08-20T12:31:35;10.23;;;8.68;;
11396;SDS011;5754;43.726;7.416;2023-08-20T12:34:10;10.45;;;8.18;;
11396;SDS011;5754;43.726;7.416;2023-08-20T12:36:45;9.98;;;8.20;;
11396;SDS011;5754;43.726;7.416;2023-08-20T12:39:21;12.32;;;9.10;;
11396;SDS011;5754;43.726;7.416;2023-08-20T12:41:55;9.95;;;8.88;;
11396;SDS011;5754;43.726;7.416;2023-08-20T12:44:30;10.02;;;9.02;;
11396;SDS011;5754;43.726;7.416;2023-08-20T12:47:05;10.40;;;9.30;;
11396;SDS011;5754;43.726;7.416;2023-08-20T12:49:39;11.88;;;10.75;;
11396;SDS011;5754;43.726;7.416;2023-08-20T12:52:13;11.43;;;10.38;;
11396;SDS011;5754;43.726;7.416;2023-08-20T12:54:50;11.93;;;10.82;;
11396;SDS011;5754;43.726;7.416;2023-08-20T12:57:24;11.20;;;9.98;;
11396;SDS011;5754;43.726;7.416;2023-08-20T12:59:59;11.60;;;10.55;;
11396;SDS011;5754;43.726;7.416;2023-08-20T13:02:33;12.32;;;10.52;;
11396;SDS011;5754;43.726;7.416;2023-08-20T13:05:08;13.15;;;10.77;;
11396;SDS011;5754;43.726;7.416;2023-08-20T13:07:44;18.05;;;11.00;;
11396;SDS011;5754;43.726;7.416;2023-08-20T13:10:19;15.00;;;10.75;;
11396;SDS011;5754;43.726;7.416;2023-08-20T13:12:54;13.68;;;10.25;;
11396;SDS011;5754;43.726;7.416;2023-08-20T13:15:31;11.30;;;9.88;;
11396;SDS011;5754;43.726;7.416;2023-08-20T13:18:07;12.35;;;9.63;;
11396;SDS011;5754;43.726;7.416;2023-08-20T13:20:43;10.73;;;9.73;;
11396;SDS011;5754;43.726;7.416;2023-08-20T13:23:17;10.68;;;9.68;;
11396;SDS011;5754;43.726;7.416;2023-08-20T13:25:51;11.75;;;9.20;;
11396;SDS011;5754;43.726;7.416;2023-08-20T13:28:26;10.77;;;9.68;;
11396;SDS011;5754;43.726;7.416;2023-08-20T13:31:00;10.52;;;9.45;;
11396;SDS011;5754;43.726;7.416;2023-08-20T13:33:35;11.60;;;10.20;;
11396;SDS011;5754;43.726;7.416;2023-08-20T13:36:09;11.98;;;10.15;;
11396;SDS011;5754;43.726;7.416;2023-08-20T13:38:44;15.02;;;10.30;;
11396;SDS011;5754;43.726;7.416;2023-08-20T13:41:18;12.27;;;10.35;;
11396;SDS011;5754;43.726;7.416;2023-08-20T13:43:52;11.45;;;9.43;;
11396;SDS011;5754;43.726;7.416;2023-08-20T13:46:27;11.00;;;9.95;;
11396;SDS011;5754;43.726;7.416;2023-08-20T13:49:02;12.57;;;9.90;;
11396;SDS011;5754;43.726;7.416;2023-08-20T13:51:37;11.90;;;9.30;;
11396;SDS011;5754;43.726;7.416;2023-08-20T13:54:11;11.15;;;8.80;;
11396;SDS011;5754;43.726;7.416;2023-08-20T13:56:46;9.82;;;8.75;;
11396;SDS011;5754;43.726;7.416;2023-08-20T13:59:20;11.95;;;7.97;;
11396;SDS011;5754;43.726;7.416;2023-08-20T14:01:54;12.77;;;8.05;;
11396;SDS011;5754;43.726;7.416;2023-08-20T14:04:29;11.95;;;8.63;;
11396;SDS011;5754;43.726;7.416;2023-08-20T14:07:05;9.95;;;8.75;;
11396;SDS011;5754;43.726;7.416;2023-08-20T14:09:39;10.68;;;9.65;;
11396;SDS011;5754;43.726;7.416;2023-08-20T14:12:14;9.90;;;8.90;;
11396;SDS011;5754;43.726;7.416;2023-08-20T14:14:49;9.98;;;8.80;;
11396;SDS011;5754;43.726;7.416;2023-08-20T14:17:23;10.65;;;9.25;;
11396;SDS011;5754;43.726;7.416;2023-08-20T14:19:59;12.93;;;9.50;;
11396;SDS011;5754;43.726;7.416;2023-08-20T14:22:33;9.65;;;8.77;;
11396;SDS011;5754;43.726;7.416;2023-08-20T14:25:07;12.60;;;9.68;;
11396;SDS011;5754;43.726;7.416;2023-08-20T14:27:43;11.40;;;9.80;;
11396;SDS011;5754;43.726;7.416;2023-08-20T14:30:18;10.52;;;9.63;;
11396;SDS011;5754;43.726;7.416;2023-08-20T14:32:52;12.73;;;9.23;;
11396;SDS011;5754;43.726;7.416;2023-08-20T14:35:27;17.23;;;9.93;;
11396;SDS011;5754;43.726;7.416;2023-08-20T14:38:01;10.10;;;8.65;;
11396;SDS011;5754;43.726;7.416;2023-08-20T14:40:41;9.80;;;8.82;;
11396;SDS011;5754;43.726;7.416;2023-08-20T14:43:16;11.18;;;9.02;;
11396;SDS011;5754;43.726;7.416;2023-08-20T14:45:50;14.00;;;8.70;;
11396;SDS011;5754;43.726;7.416;2023-08-20T14:48:24;9.95;;;8.65;;
11396;SDS011;5754;43.726;7.416;2023-08-20T14:50:59;13.85;;;8.73;;
11396;SDS011;5754;43.726;7.416;2023-08-20T14:53:34;9.20;;;8.13;;
11396;SDS011;5754;43.726;7.416;2023-08-20T14:56:08;13.93;;;7.90;;
11396;SDS011;5754;43.726;7.416;2023-08-20T14:58:42;8.73;;;7.82;;
11396;SDS011;5754;43.726;7.416;2023-08-20T15:01:17;10.70;;;8.18;;
11396;SDS011;5754;43.726;7.416;2023-08-20T15:03:51;11.68;;;8.10;;
11396;SDS011;5754;43.726;7.416;2023-08-20T15:06:29;11.45;;;7.62;;
11396;SDS011;5754;43.726;7.416;2023-08-20T15:09:04;11.35;;;7.18;;
11396;SDS011;5754;43.726;7.416;2023-08-20T15:11:41;10.35;;;7.55;;
11396;SDS011;5754;43.726;7.416;2023-08-20T15:14:16;9.23;;;6.60;;
11396;SDS011;5754;43.726;7.416;2023-08-20T15:16:51;7.05;;;6.37;;
11396;SDS011;5754;43.726;7.416;2023-08-20T15:19:25;10.00;;;7.28;;
11396;SDS011;5754;43.726;7.416;2023-08-20T15:22:00;11.35;;;7.07;;
11396;SDS011;5754;43.726;7.416;2023-08-20T15:24:37;10.48;;;6.20;;
11396;SDS011;5754;43.726;7.416;2023-08-20T15:27:11;9.38;;;6.68;;
11396;SDS011;5754;43.726;7.416;2023-08-20T15:29:45;11.77;;;6.45;;
11396;SDS011;5754;43.726;7.416;2023-08-20T15:32:20;9.15;;;6.68;;
11396;SDS011;5754;43.726;7.416;2023-08-20T15:34:54;8.02;;;6.05;;
11396;SDS011;5754;43.726;7.416;2023-08-20T15:37:29;6.97;;;5.68;;
11396;SDS011;5754;43.726;7.416;2023-08-20T15:40:04;11.40;;;5.47;;
11396;SDS011;5754;43.726;7.416;2023-08-20T15:42:42;8.05;;;4.60;;
11396;SDS011;5754;43.726;7.416;2023-08-20T15:45:16;8.57;;;4.55;;
11396;SDS011;5754;43.726;7.416;2023-08-20T15:47:51;11.02;;;5.40;;
11396;SDS011;5754;43.726;7.416;2023-08-20T15:50:25;10.05;;;4.40;;
11396;SDS011;5754;43.726;7.416;2023-08-20T15:53:02;10.68;;;5.07;;
11396;SDS011;5754;43.726;7.416;2023-08-20T15:55:37;8.02;;;4.12;;
11396;SDS011;5754;43.726;7.416;2023-08-20T15:58:11;8.15;;;4.80;;